Time;durP1;ratioP1;P1;durP2;ratioP2;P2;SDS_P1;SDS_P2;PMS_P1;PMS_P2;Temp;Humidity;BMP_temperature;BMP_pressure;BME280_temperature;BME280_humidity;BME280_pressure;Samples;Min_cycle;Max_cycle;Signal;HPM_P1;HPM_P2
2021/11/06 00:01:44;;;;;;;13.67;11.20;;;8.10;99.90;;;;;;5047985;28;20200;-72
2021/11/06 00:04:10;;;;;;;12.67;10.40;;;8.10;99.90;;;;;;5048269;28;20164;-72
2021/11/06 00:06:35;;;;;;;13.73;11.13;;;8.10;99.90;;;;;;5048257;28;20188;-72
2021/11/06 00:09:01;;;;;;;14.30;12.07;;;8.10;99.90;;;;;;5048240;28;20163;-72
2021/11/06 00:11:28;;;;;;;18.20;13.80;;;8.20;99.90;;;;;;5047951;28;20273;-72
2021/11/06 00:13:54;;;;;;;18.03;14.10;;;8.20;99.90;;;;;;5038546;28;20395;-72
2021/11/06 00:16:19;;;;;;;17.37;13.23;;;8.20;99.90;;;;;;5034758;28;20931;-72
2021/11/06 00:18:45;;;;;;;17.83;13.80;;;8.20;99.90;;;;;;5034862;28;20451;-72
2021/11/06 00:21:10;;;;;;;19.77;14.83;;;8.20;99.90;;;;;;5034621;28;20192;-72
2021/11/06 00:23:36;;;;;;;17.13;13.90;;;8.20;99.90;;;;;;5034610;28;20431;-71
2021/11/06 00:26:02;;;;;;;16.67;13.90;;;8.20;99.90;;;;;;5034458;28;20176;-72
2021/11/06 00:28:27;;;;;;;14.90;13.23;;;8.20;99.90;;;;;;5029091;28;20551;-72
2021/11/06 00:30:53;;;;;;;18.20;13.80;;;8.20;99.90;;;;;;5033712;28;20582;-72
2021/11/06 00:33:18;;;;;;;17.23;13.87;;;8.20;99.90;;;;;;5034419;28;20160;-72
2021/11/06 00:35:44;;;;;;;17.57;14.10;;;8.10;99.90;;;;;;5034408;28;20526;-72
2021/11/06 00:38:09;;;;;;;19.00;14.07;;;8.20;99.90;;;;;;5034300;28;20164;-72
2021/11/06 00:40:35;;;;;;;17.50;14.37;;;8.20;99.90;;;;;;5034284;28;20596;-72
2021/11/06 00:43:01;;;;;;;19.87;13.97;;;8.20;99.90;;;;;;5034227;28;20223;-72
2021/11/06 00:45:27;;;;;;;18.37;15.20;;;8.20;99.90;;;;;;5034168;28;20426;-72
2021/11/06 00:47:52;;;;;;;17.90;16.03;;;8.20;99.90;;;;;;5034279;28;20591;-72
2021/11/06 00:50:18;;;;;;;19.57;16.47;;;8.20;99.90;;;;;;5034077;28;20613;-72
2021/11/06 00:52:46;;;;;;;22.90;17.10;;;8.30;99.90;;;;;;5034165;28;20174;-72
2021/11/06 00:55:12;;;;;;;24.57;18.80;;;8.30;99.90;;;;;;5034240;28;20399;-72
2021/11/06 00:57:38;;;;;;;19.30;17.03;;;8.30;99.90;;;;;;5034060;28;20391;-72
2021/11/06 01:00:07;;;;;;;22.60;19.00;;;8.30;99.90;;;;;;5033032;28;20505;-72
2021/11/06 01:02:32;;;;;;;27.10;20.63;;;8.30;99.90;;;;;;5033395;28;20455;-72
2021/11/06 01:04:58;;;;;;;23.53;19.30;;;8.30;99.90;;;;;;5034076;28;20410;-72
2021/11/06 01:07:24;;;;;;;24.30;19.17;;;8.30;99.90;;;;;;5033747;28;20538;-72
2021/11/06 01:09:49;;;;;;;22.10;19.70;;;8.30;99.90;;;;;;5033791;28;20252;-72
2021/11/06 01:12:15;;;;;;;21.97;19.83;;;8.30;99.90;;;;;;5033706;28;20164;-72
2021/11/06 01:14:40;;;;;;;24.83;20.37;;;8.30;99.90;;;;;;5033890;28;20304;-72
2021/11/06 01:17:06;;;;;;;33.80;25.30;;;8.30;99.90;;;;;;5033744;28;20161;-72
2021/11/06 01:19:31;;;;;;;29.10;23.97;;;8.20;99.90;;;;;;5033520;28;20215;-72
2021/11/06 01:21:57;;;;;;;30.70;23.37;;;8.20;99.90;;;;;;5033517;28;20551;-72
2021/11/06 01:24:22;;;;;;;25.23;22.17;;;8.20;99.90;;;;;;5032905;28;20250;-72
2021/11/06 01:26:48;;;;;;;30.40;22.77;;;8.20;99.90;;;;;;5033047;28;20152;-72
2021/11/06 01:29:14;;;;;;;22.47;20.07;;;8.10;99.90;;;;;;5019121;28;20181;-72
2021/11/06 01:31:39;;;;;;;22.77;19.87;;;8.10;99.90;;;;;;5013476;28;20626;-72
2021/11/06 01:34:05;;;;;;;30.53;21.60;;;8.00;99.90;;;;;;5013650;28;20622;-72
2021/11/06 01:36:30;;;;;;;29.30;22.40;;;8.00;99.90;;;;;;5028381;28;20187;-72
2021/11/06 01:38:56;;;;;;;35.00;21.80;;;8.00;99.90;;;;;;5033244;28;20259;-72
2021/11/06 01:41:22;;;;;;;26.47;20.77;;;8.00;99.90;;;;;;5033129;28;20245;-72
2021/11/06 01:43:48;;;;;;;24.77;19.43;;;7.90;99.90;;;;;;5032892;28;20194;-72
2021/11/06 01:46:14;;;;;;;22.80;17.73;;;7.90;99.90;;;;;;5033255;28;20151;-72
2021/11/06 01:48:40;;;;;;;25.87;20.60;;;7.90;99.90;;;;;;5033002;28;20391;-72
2021/11/06 01:51:05;;;;;;;23.77;18.20;;;7.80;99.90;;;;;;5032935;28;20869;-72
2021/11/06 01:53:32;;;;;;;30.10;18.67;;;7.80;99.90;;;;;;5032661;28;20176;-72
2021/11/06 01:55:59;;;;;;;22.60;18.30;;;7.80;99.90;;;;;;5033024;28;20218;-72
2021/11/06 01:58:28;;;;;;;22.40;17.70;;;7.70;99.90;;;;;;5027736;28;20419;-72
2021/11/06 02:00:54;;;;;;;33.73;21.90;;;7.70;99.90;;;;;;5032558;28;20426;-72
2021/11/06 02:03:20;;;;;;;39.93;24.07;;;7.70;99.90;;;;;;5032549;28;20495;-72
2021/11/06 02:05:45;;;;;;;35.50;22.27;;;7.70;99.90;;;;;;5032899;28;20443;-72
2021/11/06 02:08:12;;;;;;;27.90;20.20;;;7.60;99.90;;;;;;5032647;28;20686;-72
2021/11/06 02:10:40;;;;;;;27.40;19.63;;;7.60;99.90;;;;;;5032457;28;20177;-72
2021/11/06 02:13:06;;;;;;;34.90;21.37;;;7.60;99.90;;;;;;5032671;28;20463;-72
2021/11/06 02:15:31;;;;;;;33.03;19.60;;;7.50;99.90;;;;;;5032499;28;20407;-72
2021/11/06 02:17:57;;;;;;;35.53;20.93;;;7.50;99.90;;;;;;5032555;28;20172;-72
2021/11/06 02:20:22;;;;;;;34.17;19.93;;;7.50;99.90;;;;;;5032680;28;20207;-72
2021/11/06 02:22:49;;;;;;;22.43;16.47;;;7.50;99.90;;;;;;5032364;28;20310;-72
2021/11/06 02:25:16;;;;;;;24.40;16.47;;;7.40;99.90;;;;;;5032338;28;20162;-72
2021/11/06 02:27:42;;;;;;;26.50;15.30;;;7.40;99.90;;;;;;5026170;28;20428;-72
2021/11/06 02:30:11;;;;;;;18.17;13.53;;;7.40;99.90;;;;;;5023968;28;20438;-72
2021/11/06 02:32:37;;;;;;;22.57;13.20;;;7.40;99.90;;;;;;5028088;28;20171;-72
2021/11/06 02:35:04;;;;;;;25.97;15.20;;;7.40;99.90;;;;;;5032028;28;20472;-72
2021/11/06 02:37:30;;;;;;;20.97;14.00;;;7.40;99.90;;;;;;5032160;28;20457;-73
2021/11/06 02:39:55;;;;;;;22.57;14.27;;;7.40;99.90;;;;;;5032160;28;20394;-72
2021/11/06 02:42:21;;;;;;;26.47;16.60;;;7.30;99.90;;;;;;5032012;28;20591;-72
2021/11/06 02:44:47;;;;;;;23.50;16.80;;;7.30;99.90;;;;;;5031875;28;20241;-72
2021/11/06 02:47:13;;;;;;;22.70;15.57;;;7.30;99.90;;;;;;5032341;28;20166;-72
2021/11/06 02:49:39;;;;;;;28.33;15.97;;;7.30;99.90;;;;;;5032239;28;20779;-72
2021/11/06 02:52:05;;;;;;;25.73;17.07;;;7.30;99.90;;;;;;5032124;28;20175;-72
2021/11/06 02:54:31;;;;;;;26.20;17.93;;;7.30;99.90;;;;;;5032020;28;20965;-72
2021/11/06 02:56:57;;;;;;;27.37;17.97;;;7.30;99.90;;;;;;5032165;28;20413;-72
2021/11/06 02:59:23;;;;;;;27.33;18.13;;;7.30;99.90;;;;;;5030767;28;20248;-72
2021/11/06 03:01:49;;;;;;;23.60;16.90;;;7.30;99.90;;;;;;5031525;28;20465;-72
2021/11/06 03:04:15;;;;;;;30.83;17.70;;;7.20;99.90;;;;;;5031915;28;20398;-72
2021/11/06 03:06:41;;;;;;;30.80;20.27;;;7.20;99.90;;;;;;5031878;28;20391;-72
2021/11/06 03:09:08;;;;;;;22.93;17.40;;;7.20;99.90;;;;;;5032131;28;20410;-72
2021/11/06 03:11:35;;;;;;;23.60;18.70;;;7.20;99.90;;;;;;5031678;28;20447;-72
2021/11/06 03:14:04;;;;;;;26.53;18.00;;;7.20;99.90;;;;;;5012044;28;20414;-72
2021/11/06 03:16:30;;;;;;;21.53;18.37;;;7.20;99.90;;;;;;5012080;28;20406;-72
2021/11/06 03:18:56;;;;;;;27.53;18.83;;;7.20;99.90;;;;;;5030432;28;20513;-72
2021/11/06 03:21:22;;;;;;;27.80;17.97;;;7.10;99.90;;;;;;5031569;28;20557;-72
2021/11/06 03:23:48;;;;;;;22.77;17.07;;;7.10;99.90;;;;;;5031741;28;20524;-72
2021/11/06 03:26:14;;;;;;;25.60;18.20;;;7.10;99.90;;;;;;5031653;28;20487;-72
2021/11/06 03:28:40;;;;;;;28.17;19.17;;;7.10;99.90;;;;;;5015679;28;20438;-73
2021/11/06 03:31:06;;;;;;;30.73;19.13;;;7.10;99.90;;;;;;5026080;28;20410;-73
2021/11/06 03:33:32;;;;;;;28.57;18.57;;;7.10;99.90;;;;;;5031658;28;20532;-73
2021/11/06 03:35:58;;;;;;;27.50;18.73;;;7.10;99.90;;;;;;5031652;28;20180;-73
2021/11/06 03:38:23;;;;;;;29.97;18.23;;;7.10;99.90;;;;;;5031326;28;20406;-73
2021/11/06 03:40:49;;;;;;;27.87;19.23;;;7.10;99.90;;;;;;5031618;28;20168;-73
2021/11/06 03:43:15;;;;;;;32.87;19.87;;;7.10;99.90;;;;;;5031481;28;20572;-73
2021/11/06 03:45:41;;;;;;;30.20;21.10;;;7.00;99.90;;;;;;5032043;28;20191;-69
2021/11/06 03:48:07;;;;;;;24.40;18.37;;;7.00;99.90;;;;;;5032022;28;20929;-69
2021/11/06 03:50:32;;;;;;;22.77;18.03;;;7.00;99.90;;;;;;5035315;28;20194;-69
2021/11/06 03:52:58;;;;;;;26.93;20.50;;;7.00;99.90;;;;;;5034949;28;20187;-68
2021/11/06 03:55:24;;;;;;;27.40;19.83;;;7.00;99.90;;;;;;5035152;28;20159;-69
2021/11/06 03:57:51;;;;;;;28.73;19.77;;;7.00;99.90;;;;;;5026160;28;20190;-70
2021/11/06 04:00:18;;;;;;;23.17;19.20;;;7.00;99.90;;;;;;5022420;28;20200;-68
2021/11/06 04:02:44;;;;;;;31.87;20.87;;;6.90;99.90;;;;;;5034816;28;20860;-68
2021/11/06 04:05:11;;;;;;;25.30;18.40;;;7.00;99.90;;;;;;5035163;28;20412;-70
2021/11/06 04:07:37;;;;;;;28.67;20.03;;;6.90;99.90;;;;;;5034879;28;20401;-68
2021/11/06 04:10:03;;;;;;;23.23;17.00;;;6.90;99.90;;;;;;5034784;28;20418;-69
2021/11/06 04:12:29;;;;;;;25.70;18.50;;;6.90;99.90;;;;;;5034927;28;20409;-69
2021/11/06 04:14:54;;;;;;;26.03;18.40;;;6.90;99.90;;;;;;5034709;28;20485;-69
2021/11/06 04:17:20;;;;;;;26.30;16.63;;;6.90;99.90;;;;;;5034758;28;20623;-69
2021/11/06 04:19:46;;;;;;;28.97;17.00;;;6.90;99.90;;;;;;5034724;28;20173;-69
2021/11/06 04:22:11;;;;;;;22.40;16.27;;;6.80;99.90;;;;;;5034766;28;20202;-69
2021/11/06 04:24:39;;;;;;;22.40;16.40;;;6.80;99.90;;;;;;5034710;28;20164;-68
2021/11/06 04:27:06;;;;;;;26.07;16.10;;;6.80;99.90;;;;;;5028713;28;20215;-69
2021/11/06 04:29:31;;;;;;;19.70;14.57;;;6.80;99.90;;;;;;5017517;28;20425;-69
2021/11/06 04:31:57;;;;;;;21.03;14.90;;;6.80;99.90;;;;;;5034177;28;20752;-68
2021/11/06 04:34:24;;;;;;;19.80;15.47;;;6.80;99.90;;;;;;5034448;28;20420;-68
2021/11/06 04:36:50;;;;;;;26.17;16.53;;;6.80;99.90;;;;;;5034271;28;20262;-69
2021/11/06 04:39:15;;;;;;;22.90;16.37;;;6.80;99.90;;;;;;5034638;28;20423;-68
2021/11/06 04:41:41;;;;;;;22.30;15.30;;;6.80;99.90;;;;;;5034273;28;21045;-69
2021/11/06 04:44:07;;;;;;;24.83;16.13;;;6.80;99.90;;;;;;5034245;28;20945;-70
2021/11/06 04:46:32;;;;;;;20.13;15.57;;;6.80;99.90;;;;;;5034289;28;20157;-68
2021/11/06 04:48:58;;;;;;;19.13;15.50;;;6.70;99.90;;;;;;5034217;28;20245;-68
2021/11/06 04:51:24;;;;;;;25.70;18.27;;;6.80;99.90;;;;;;5034133;28;20221;-69
2021/11/06 04:53:50;;;;;;;24.40;15.70;;;6.80;99.90;;;;;;5033901;28;20171;-69
2021/11/06 04:56:15;;;;;;;25.73;16.20;;;6.80;99.90;;;;;;5034045;28;20194;-69
2021/11/06 04:58:41;;;;;;;25.20;17.27;;;6.70;99.90;;;;;;5034055;28;20426;-70
2021/11/06 05:01:07;;;;;;;22.80;16.13;;;6.80;99.90;;;;;;5032527;28;20192;-68
2021/11/06 05:03:33;;;;;;;24.13;17.80;;;6.80;99.90;;;;;;5033735;28;20182;-68
2021/11/06 05:05:58;;;;;;;27.37;17.63;;;6.70;99.90;;;;;;5033890;28;20171;-69
2021/11/06 05:08:24;;;;;;;21.27;16.50;;;6.70;99.90;;;;;;5033928;28;20253;-69
2021/11/06 05:10:49;;;;;;;20.40;15.60;;;6.70;99.90;;;;;;5033865;28;20152;-68
2021/11/06 05:13:15;;;;;;;23.90;17.40;;;6.70;99.90;;;;;;5033800;28;20174;-69
2021/11/06 05:15:41;;;;;;;29.90;16.20;;;6.70;99.90;;;;;;5033533;28;20537;-68
2021/11/06 05:18:07;;;;;;;23.33;17.20;;;6.70;99.90;;;;;;5033496;28;20255;-69
2021/11/06 05:20:33;;;;;;;23.33;17.70;;;6.80;99.90;;;;;;5033580;28;20759;-69
2021/11/06 05:22:59;;;;;;;24.33;18.00;;;6.70;99.90;;;;;;5033455;28;20500;-69
2021/11/06 05:25:25;;;;;;;24.23;17.20;;;6.70;99.90;;;;;;5033810;28;20896;-68
2021/11/06 05:27:51;;;;;;;23.97;16.30;;;6.70;99.90;;;;;;5019776;28;20186;-69
2021/11/06 05:30:17;;;;;;;23.83;16.87;;;6.70;99.90;;;;;;5022357;28;20485;-68
2021/11/06 05:32:43;;;;;;;23.70;17.10;;;6.70;99.90;;;;;;5033398;28;20157;-69
2021/11/06 05:35:11;;;;;;;22.13;16.97;;;6.70;99.90;;;;;;5032929;28;20405;-68
2021/11/06 05:37:37;;;;;;;25.13;15.27;;;6.70;99.90;;;;;;5033502;28;20159;-69
2021/11/06 05:40:05;;;;;;;23.53;17.30;;;6.70;99.90;;;;;;5033055;28;20419;-68
2021/11/06 05:42:32;;;;;;;22.50;17.30;;;6.70;99.90;;;;;;5033171;28;20202;-69
2021/11/06 05:44:58;;;;;;;22.67;16.70;;;6.70;99.90;;;;;;5033433;28;20426;-69
2021/11/06 05:47:24;;;;;;;24.90;16.77;;;6.70;99.90;;;;;;5033045;28;20433;-68
2021/11/06 05:49:49;;;;;;;23.43;16.70;;;6.60;99.90;;;;;;5032913;28;20398;-69
2021/11/06 05:52:15;;;;;;;27.90;18.33;;;6.60;99.90;;;;;;5033007;28;20551;-69
2021/11/06 05:54:41;;;;;;;18.80;15.90;;;6.60;99.90;;;;;;5033079;28;20567;-68
2021/11/06 05:57:06;;;;;;;24.20;17.77;;;6.60;99.90;;;;;;5025105;28;20255;-68
2021/11/06 05:59:32;;;;;;;23.10;17.13;;;6.60;99.90;;;;;;5018560;28;20196;-69
2021/11/06 06:01:58;;;;;;;23.87;17.00;;;6.60;99.90;;;;;;5032679;28;20201;-68
2021/11/06 06:04:23;;;;;;;24.00;16.40;;;6.60;99.90;;;;;;5032923;28;20160;-68
2021/11/06 06:06:49;;;;;;;24.10;17.13;;;6.60;99.90;;;;;;5032543;28;20267;-68
2021/11/06 06:09:15;;;;;;;25.07;17.63;;;6.60;99.90;;;;;;5032767;28;20156;-69
2021/11/06 06:11:40;;;;;;;19.33;16.10;;;6.60;99.90;;;;;;5032262;28;20191;-68
2021/11/06 06:14:06;;;;;;;26.23;18.13;;;6.60;99.90;;;;;;5032707;28;20168;-68
2021/11/06 06:16:31;;;;;;;22.77;16.83;;;6.60;99.90;;;;;;5032663;28;20179;-69
2021/11/06 06:18:57;;;;;;;25.23;18.00;;;6.60;99.90;;;;;;5032570;28;20167;-69
2021/11/06 06:21:23;;;;;;;25.50;17.90;;;6.60;99.90;;;;;;5032698;28;20207;-69
2021/11/06 06:23:48;;;;;;;23.40;17.43;;;6.50;99.90;;;;;;5032460;28;20163;-69
2021/11/06 06:26:14;;;;;;;24.73;17.87;;;6.50;99.90;;;;;;5013008;28;20170;-69
2021/11/06 06:28:40;;;;;;;28.07;18.10;;;6.50;99.90;;;;;;5012733;28;20849;-69
2021/11/06 06:31:06;;;;;;;24.80;19.37;;;6.50;99.90;;;;;;5029399;28;20535;-69
2021/11/06 06:33:32;;;;;;;25.27;17.07;;;6.60;99.90;;;;;;5032134;28;20169;-69
2021/11/06 06:35:58;;;;;;;27.43;21.17;;;6.60;99.90;;;;;;5032634;28;20391;-68
2021/11/06 06:38:23;;;;;;;25.13;19.10;;;6.50;99.90;;;;;;5032265;28;20440;-69
2021/11/06 06:40:49;;;;;;;22.97;18.27;;;6.50;99.90;;;;;;5032042;28;20218;-70
2021/11/06 06:43:14;;;;;;;25.30;17.70;;;6.60;99.90;;;;;;5032265;28;20564;-69
2021/11/06 06:45:40;;;;;;;24.50;18.17;;;6.50;99.90;;;;;;5032276;28;20166;-69
2021/11/06 06:48:06;;;;;;;27.30;19.53;;;6.60;99.90;;;;;;5032089;28;20168;-69
2021/11/06 06:50:32;;;;;;;27.10;19.80;;;6.60;99.90;;;;;;5032198;28;20157;-70
2021/11/06 06:52:57;;;;;;;26.87;18.97;;;6.60;99.90;;;;;;5032083;28;20245;-69
2021/11/06 06:55:23;;;;;;;29.67;19.67;;;6.60;99.90;;;;;;5031967;28;20229;-70
2021/11/06 06:57:48;;;;;;;26.73;17.77;;;6.60;99.90;;;;;;5031927;28;20615;-69
2021/11/06 07:00:15;;;;;;;24.07;19.67;;;6.60;99.90;;;;;;5019748;28;20199;-69
2021/11/06 07:02:42;;;;;;;32.13;19.70;;;6.60;99.90;;;;;;5011814;28;20236;-70
2021/11/06 07:05:08;;;;;;;21.80;18.00;;;6.70;99.90;;;;;;5012078;28;20403;-69
2021/11/06 07:07:34;;;;;;;34.23;20.20;;;6.70;99.90;;;;;;5012098;28;20820;-68
2021/11/06 07:10:00;;;;;;;26.87;17.20;;;6.70;99.90;;;;;;5012094;28;20503;-68
2021/11/06 07:12:26;;;;;;;18.97;16.20;;;6.70;99.90;;;;;;5012256;28;20168;-68
2021/11/06 07:14:53;;;;;;;24.27;17.67;;;6.80;99.90;;;;;;5013662;28;20400;-68
2021/11/06 07:17:41;;;;;;;21.40;16.70;;;6.80;99.90;;;;;;5031955;28;20473;-68
2021/11/06 07:20:09;;;;;;;20.60;15.10;;;6.80;99.90;;;;;;5032251;28;20476;-69
2021/11/06 07:22:36;;;;;;;19.93;16.33;;;6.80;99.90;;;;;;5031757;28;20447;-70
2021/11/06 07:25:04;;;;;;;18.60;15.80;;;6.90;99.90;;;;;;5035461;28;20399;-69
2021/11/06 07:27:31;;;;;;;20.43;15.87;;;6.90;99.90;;;;;;5035816;28;20447;-67
2021/11/06 07:29:56;;;;;;;20.30;14.00;;;6.90;99.90;;;;;;5030138;28;21054;-68
2021/11/06 07:32:22;;;;;;;18.90;14.50;;;6.90;99.90;;;;;;5035332;28;20505;-68
2021/11/06 07:34:48;;;;;;;21.43;14.43;;;6.90;99.90;;;;;;5035594;28;20168;-68
2021/11/06 07:37:13;;;;;;;16.00;13.90;;;7.00;99.90;;;;;;5035865;28;20641;-67
2021/11/06 07:39:39;;;;;;;15.07;13.00;;;7.00;99.90;;;;;;5035687;28;20583;-68
2021/11/06 07:42:05;;;;;;;18.70;14.00;;;7.10;99.90;;;;;;5035355;28;20195;-67
2021/11/06 07:44:30;;;;;;;17.60;13.03;;;7.10;99.90;;;;;;5035484;28;20167;-67
2021/11/06 07:46:56;;;;;;;16.77;13.93;;;7.20;99.90;;;;;;5035386;28;20239;-68
2021/11/06 07:49:22;;;;;;;16.20;12.80;;;7.20;99.90;;;;;;5029877;28;20652;-67
2021/11/06 07:51:47;;;;;;;14.20;12.70;;;7.30;99.90;;;;;;5015481;28;20168;-67
2021/11/06 07:54:13;;;;;;;15.27;12.77;;;7.30;99.90;;;;;;5015492;28;20164;-67
2021/11/06 07:56:39;;;;;;;17.47;12.33;;;7.40;99.90;;;;;;5015470;28;20577;-67
2021/11/06 07:59:06;;;;;;;15.63;12.50;;;7.40;99.90;;;;;;5018240;28;20235;-67
2021/11/06 08:01:32;;;;;;;14.30;11.57;;;7.50;99.90;;;;;;5034967;28;20210;-68
2021/11/06 08:03:57;;;;;;;12.93;11.20;;;7.60;99.90;;;;;;5035575;28;20395;-68
2021/11/06 08:06:23;;;;;;;16.03;11.67;;;7.70;99.90;;;;;;5034994;28;20229;-67
2021/11/06 08:08:49;;;;;;;12.97;11.77;;;7.80;99.90;;;;;;5034979;28;20570;-67
2021/11/06 08:11:14;;;;;;;14.47;10.10;;;7.90;99.90;;;;;;5034866;28;20188;-67
2021/11/06 08:13:41;;;;;;;13.87;12.00;;;8.00;99.90;;;;;;5034935;28;20157;-66
2021/11/06 08:16:06;;;;;;;13.67;11.13;;;8.10;99.90;;;;;;5034849;28;20260;-68
2021/11/06 08:18:32;;;;;;;13.77;11.40;;;8.10;99.90;;;;;;5034777;28;20426;-68
2021/11/06 08:20:59;;;;;;;18.87;10.30;;;8.20;99.90;;;;;;5034379;28;20557;-67
2021/11/06 08:23:24;;;;;;;12.03;10.70;;;8.20;99.90;;;;;;5034544;28;20566;-67
2021/11/06 08:25:51;;;;;;;13.63;9.73;;;8.30;99.90;;;;;;5034760;28;20491;-67
2021/11/06 08:28:17;;;;;;;13.83;10.47;;;8.30;99.90;;;;;;5034619;28;20162;-68
2021/11/06 08:30:42;;;;;;;11.97;9.60;;;8.30;99.90;;;;;;5030235;28;20517;-68
2021/11/06 08:33:10;;;;;;;19.17;10.60;;;8.40;99.90;;;;;;5034675;28;20902;-67
2021/11/06 08:35:36;;;;;;;15.47;10.13;;;8.40;99.90;;;;;;5034049;28;20182;-67
2021/11/06 08:38:02;;;;;;;11.37;9.97;;;8.40;99.90;;;;;;5034574;28;20410;-69
2021/11/06 08:40:28;;;;;;;19.33;10.83;;;8.50;99.90;;;;;;5034062;28;20502;-68
2021/11/06 08:42:54;;;;;;;12.97;9.00;;;8.50;99.90;;;;;;5034382;28;20506;-67
2021/11/06 08:45:20;;;;;;;11.00;9.23;;;8.50;99.90;;;;;;5034258;28;20388;-69
2021/11/06 08:47:47;;;;;;;14.90;9.67;;;8.50;99.90;;;;;;5034253;28;20618;-67
2021/11/06 08:50:16;;;;;;;10.70;9.27;;;8.50;99.90;;;;;;5034309;28;20388;-67
2021/11/06 08:52:42;;;;;;;9.20;7.97;;;8.50;99.90;;;;;;5034177;28;20475;-68
2021/11/06 08:55:08;;;;;;;11.87;8.90;;;8.50;99.90;;;;;;5034161;28;20830;-67
2021/11/06 08:57:35;;;;;;;12.77;8.60;;;8.50;99.90;;;;;;5033963;28;20455;-67
2021/11/06 09:00:06;;;;;;;15.23;8.30;;;8.50;99.90;;;;;;5027263;28;20942;-68
2021/11/06 09:02:33;;;;;;;10.60;8.57;;;8.50;99.90;;;;;;5033755;28;20546;-68
2021/11/06 09:04:59;;;;;;;9.70;8.37;;;8.60;99.90;;;;;;5033867;28;20445;-68
2021/11/06 09:07:25;;;;;;;9.97;8.10;;;8.70;99.90;;;;;;5033772;28;20472;-68
2021/11/06 09:09:50;;;;;;;10.90;6.83;;;8.70;99.90;;;;;;5033673;28;20404;-69
2021/11/06 09:12:16;;;;;;;9.13;7.70;;;8.80;99.90;;;;;;5033901;28;20162;-69
2021/11/06 09:14:42;;;;;;;9.80;7.30;;;8.80;99.90;;;;;;5033505;28;20287;-68
2021/11/06 09:17:07;;;;;;;8.90;7.57;;;8.90;99.90;;;;;;5033565;28;20457;-69
2021/11/06 09:19:33;;;;;;;9.40;6.73;;;9.00;99.90;;;;;;5033803;28;20167;-68
2021/11/06 09:21:59;;;;;;;10.20;7.77;;;9.10;99.90;;;;;;5033281;28;20228;-69
2021/11/06 09:24:25;;;;;;;11.87;8.43;;;9.10;99.90;;;;;;5033446;28;20396;-67
2021/11/06 09:26:50;;;;;;;9.13;7.30;;;9.20;99.90;;;;;;5033494;28;20494;-67
2021/11/06 09:29:17;;;;;;;9.70;7.53;;;9.30;99.90;;;;;;5029786;28;20170;-69
2021/11/06 09:31:44;;;;;;;9.33;6.23;;;9.40;99.90;;;;;;5032206;28;20569;-67
2021/11/06 09:34:11;;;;;;;7.40;6.70;;;9.50;99.90;;;;;;5032010;28;20419;-69
2021/11/06 09:36:37;;;;;;;7.97;6.60;;;9.60;99.90;;;;;;5032388;28;20401;-68
2021/11/06 09:39:05;;;;;;;8.90;6.33;;;9.70;99.90;;;;;;5033322;28;20512;-67
2021/11/06 09:41:31;;;;;;;7.83;6.20;;;9.70;99.90;;;;;;5032652;28;20465;-68
2021/11/06 09:43:58;;;;;;;6.97;6.27;;;9.70;99.90;;;;;;5033348;28;20446;-69
2021/11/06 09:46:25;;;;;;;7.47;6.77;;;9.80;99.90;;;;;;5032375;28;20423;-70
2021/11/06 09:48:51;;;;;;;7.20;6.50;;;9.90;99.90;;;;;;5024279;28;20425;-69
2021/11/06 09:51:18;;;;;;;8.83;7.93;;;10.00;99.90;;;;;;5013320;28;20441;-68
2021/11/06 09:53:47;;;;;;;7.00;6.30;;;10.00;99.90;;;;;;5013128;28;20164;-68
2021/11/06 09:56:17;;;;;;;7.33;6.10;;;9.90;99.90;;;;;;5013194;28;20413;-69
2021/11/06 09:58:43;;;;;;;9.60;7.40;;;10.00;99.90;;;;;;5016979;28;20438;-68
2021/11/06 10:01:10;;;;;;;7.20;6.50;;;10.00;99.90;;;;;;5032750;28;20426;-68
2021/11/06 10:03:36;;;;;;;10.87;6.43;;;10.10;99.90;;;;;;5032885;28;20426;-68
2021/11/06 10:06:05;;;;;;;7.70;6.50;;;10.10;99.90;;;;;;5032686;28;20425;-68
2021/11/06 10:08:36;;;;;;;8.90;6.60;;;10.20;99.90;;;;;;5032980;28;20457;-68
2021/11/06 10:11:07;;;;;;;9.03;7.07;;;10.20;99.90;;;;;;5032187;28;20437;-68
2021/11/06 10:13:38;;;;;;;7.67;6.83;;;10.10;99.90;;;;;;5032726;28;20907;-69
2021/11/06 10:16:03;;;;;;;7.63;6.20;;;10.20;99.90;;;;;;5032516;28;20412;-66
2021/11/06 10:18:29;;;;;;;9.73;6.50;;;10.20;99.90;;;;;;5032367;28;20433;-68
2021/11/06 10:21:02;;;;;;;8.83;6.20;;;10.20;99.90;;;;;;5032566;28;20176;-69
2021/11/06 10:23:32;;;;;;;7.60;6.50;;;10.30;99.90;;;;;;5032082;28;20581;-69
2021/11/06 10:26:11;;;;;;;9.00;6.50;;;10.30;99.90;;;;;;5032398;28;20758;-69
2021/11/06 10:28:37;;;;;;;6.90;6.00;;;10.40;99.90;;;;;;5027414;28;20420;-68
2021/11/06 10:31:04;;;;;;;9.10;6.77;;;10.40;99.90;;;;;;4994262;28;20424;-69
2021/11/06 10:33:30;;;;;;;7.63;6.93;;;10.40;99.90;;;;;;4992873;28;20433;-68
2021/11/06 10:35:59;;;;;;;9.50;7.07;;;10.50;99.90;;;;;;4992987;28;20452;-68
2021/11/06 10:38:28;;;;;;;12.90;7.37;;;10.50;99.90;;;;;;4992682;28;20939;-68
2021/11/06 10:41:01;;;;;;;10.43;8.33;;;10.50;99.90;;;;;;5010744;28;20860;-68
2021/11/06 10:43:32;;;;;;;13.47;11.10;;;10.40;99.90;;;;;;5012441;28;20447;-69
2021/11/06 10:46:00;;;;;;;9.17;6.60;;;10.40;99.90;;;;;;5012519;28;20791;-67
2021/11/06 10:48:30;;;;;;;8.20;7.23;;;10.40;99.90;;;;;;5010686;28;20429;-67
2021/11/06 10:56:42;;;;;;;8.50;7.40;;;10.40;99.90;;;;;;5063032;28;20529;-69
2021/11/06 10:59:19;;;;;;;9.03;7.43;;;10.40;99.90;;;;;;5049181;28;20968;-69
2021/11/06 11:01:47;;;;;;;11.73;8.20;;;10.50;99.90;;;;;;5029202;28;20802;-69
2021/11/06 11:04:17;;;;;;;9.57;8.00;;;10.40;99.90;;;;;;5029249;28;20392;-67
2021/11/06 11:09:25;;;;;;;8.83;7.20;;;10.30;99.90;;;;;;5130430;27;20504;-66
2021/11/06 11:11:53;;;;;;;10.17;8.33;;;10.30;99.90;;;;;;5130288;28;20380;-68
2021/11/06 11:14:22;;;;;;;8.90;7.20;;;10.30;99.90;;;;;;5116553;28;20746;-68
2021/11/06 11:17:01;;;;;;;8.63;7.43;;;10.40;99.90;;;;;;5109691;28;20376;-68
2021/11/06 11:19:33;;;;;;;6.70;6.10;;;10.50;99.90;;;;;;5119792;28;20403;-68
2021/11/06 11:21:58;;;;;;;7.00;6.30;;;10.60;99.90;;;;;;5130090;28;20391;-68
2021/11/06 11:24:24;;;;;;;9.13;6.47;;;10.70;99.90;;;;;;5129706;28;20899;-69
2021/11/06 11:26:52;;;;;;;11.53;10.33;;;10.80;99.90;;;;;;5130011;27;20237;-68
2021/11/06 11:29:26;;;;;;;9.93;8.93;;;10.90;99.90;;;;;;5129283;27;20191;-70
2021/11/06 11:31:52;;;;;;;9.00;7.83;;;11.00;99.90;;;;;;5109890;28;20498;-69
2021/11/06 11:34:18;;;;;;;7.30;6.60;;;11.00;99.90;;;;;;5109424;28;20399;-69
2021/11/06 11:36:45;;;;;;;9.30;6.50;;;11.00;99.90;;;;;;5109213;28;20389;-69
2021/11/06 11:39:15;;;;;;;6.63;6.00;;;11.10;99.90;;;;;;5109191;28;20396;-67
2021/11/06 11:50:10;;;;;;;8.83;5.30;;;11.40;99.90;;;;;;5068985;28;20520;-68
2021/11/06 11:52:38;;;;;;;6.43;4.80;;;11.50;99.90;;;;;;5069110;28;20390;-68
2021/11/06 11:55:06;;;;;;;8.03;4.93;;;11.60;99.90;;;;;;5069092;28;20393;-69
2021/11/06 11:57:34;;;;;;;5.63;4.60;;;11.60;99.90;;;;;;5069084;28;20456;-69
2021/11/06 12:00:20;;;;;;;5.20;4.40;;;11.50;99.90;;;;;;5053401;28;20434;-68
2021/11/06 12:05:36;;;;;;;7.27;4.70;;;11.60;99.90;;;;;;5094843;27;20507;-68
2021/11/06 12:10:56;;;;;;;7.87;3.20;;;11.60;99.90;;;;;;5069149;28;20511;-68
2021/11/06 12:16:10;;;;;;;5.07;4.03;;;11.50;99.90;;;;;;5069085;28;20511;-68
2021/11/06 12:18:57;;;;;;;5.47;4.53;;;11.40;99.90;;;;;;5068835;28;20402;-68
2021/11/06 12:26:53;;;;;;;3.63;3.30;;;11.50;99.90;;;;;;5150971;27;20583;-69
2021/11/06 12:32:09;;;;;;;4.37;3.53;;;11.60;99.90;;;;;;5069229;28;20657;-68
2021/11/06 12:34:41;;;;;;;3.50;2.67;;;11.70;99.90;;;;;;5069433;28;20386;-68
2021/11/06 12:37:09;;;;;;;4.70;3.63;;;11.80;99.90;;;;;;5069146;28;20417;-68
2021/11/06 12:42:29;;;;;;;4.43;4.03;;;11.90;99.90;;;;;;5069174;28;21128;-68
2021/11/06 12:47:35;;;;;;;4.03;3.40;;;12.10;99.90;;;;;;5069193;28;20520;-69
2021/11/06 12:50:17;;;;;;;6.53;3.37;;;12.20;99.90;;;;;;5069321;28;20901;-68
2021/11/06 12:52:43;;;;;;;4.07;3.20;;;12.20;99.90;;;;;;5069238;28;20386;-69
2021/11/06 12:55:09;;;;;;;3.97;3.60;;;12.20;99.90;;;;;;5065819;28;20816;-68
2021/11/06 12:57:39;;;;;;;4.80;3.40;;;12.20;99.90;;;;;;5049155;28;20411;-69
2021/11/06 13:00:24;;;;;;;5.67;3.13;;;12.20;99.90;;;;;;5052652;28;20430;-69
2021/11/06 13:02:53;;;;;;;4.83;2.53;;;12.30;99.90;;;;;;5048933;28;20387;-69
2021/11/06 13:05:22;;;;;;;5.70;3.53;;;12.30;99.90;;;;;;5048884;28;20387;-70
2021/11/06 13:07:49;;;;;;;5.97;3.77;;;12.40;99.90;;;;;;5048951;28;20391;-69
2021/11/06 13:10:25;;;;;;;4.33;2.63;;;12.40;99.90;;;;;;5048850;28;20426;-68
2021/11/06 13:13:07;;;;;;;5.03;3.17;;;12.40;99.90;;;;;;5057849;28;20401;-69
2021/11/06 13:15:43;;;;;;;3.93;2.83;;;12.40;99.90;;;;;;5068958;28;20770;-69
2021/11/06 13:18:13;;;;;;;5.27;3.80;;;12.40;99.90;;;;;;5068759;28;20415;-68